sensor_id;sensor_type;location;lat;lon;timestamp;pressure;altitude;pressure_sealevel;temperature;humidity
71976;BME280;68326;52.124;5.424;2023-05-19T00:01:11;102821.19;;;9.84;80.22
71976;BME280;68326;52.124;5.424;2023-05-19T00:03:51;102820.28;;;9.85;78.65
71976;BME280;68326;52.124;5.424;2023-05-19T00:06:27;102817.72;;;9.84;80.49
71976;BME280;68326;52.124;5.424;2023-05-19T00:09:04;102822.13;;;9.80;79.69
71976;BME280;68326;52.124;5.424;2023-05-19T00:11:31;102817.78;;;9.77;79.99
71976;BME280;68326;52.124;5.424;2023-05-19T00:13:58;102816.94;;;9.77;80.29
71976;BME280;68326;52.124;5.424;2023-05-19T00:16:26;102821.28;;;9.76;80.58
71976;BME280;68326;52.124;5.424;2023-05-19T00:18:54;102809.28;;;9.69;79.29
71976;BME280;68326;52.124;5.424;2023-05-19T00:21:22;102806.69;;;9.68;80.85
71976;BME280;68326;52.124;5.424;2023-05-19T00:23:49;102805.88;;;9.63;81.00
71976;BME280;68326;52.124;5.424;2023-05-19T00:26:15;102800.75;;;9.59;80.33
71976;BME280;68326;52.124;5.424;2023-05-19T00:28:42;102800.81;;;9.56;81.05
71976;BME280;68326;52.124;5.424;2023-05-19T00:31:08;102804.31;;;9.52;80.76
71976;BME280;68326;52.124;5.424;2023-05-19T00:33:35;102802.59;;;9.51;81.02
71976;BME280;68326;52.124;5.424;2023-05-19T00:36:02;102798.28;;;9.50;81.57
71976;BME280;68326;52.124;5.424;2023-05-19T00:38:30;102804.44;;;9.45;81.92
71976;BME280;68326;52.124;5.424;2023-05-19T00:40:57;102796.63;;;9.45;81.68
71976;BME280;68326;52.124;5.424;2023-05-19T00:43:24;102792.34;;;9.42;81.42
71976;BME280;68326;52.124;5.424;2023-05-19T00:45:51;102798.38;;;9.43;82.01
71976;BME280;68326;52.124;5.424;2023-05-19T00:48:17;102797.63;;;9.34;81.33
71976;BME280;68326;52.124;5.424;2023-05-19T00:50:44;102797.69;;;9.31;81.91
71976;BME280;68326;52.124;5.424;2023-05-19T00:53:13;102799.38;;;9.32;82.14
71976;BME280;68326;52.124;5.424;2023-05-19T00:55:40;102801.09;;;9.35;81.70
71976;BME280;68326;52.124;5.424;2023-05-19T00:58:09;102800.28;;;9.33;81.86
71976;BME280;68326;52.124;5.424;2023-05-19T01:00:37;102796.88;;;9.26;82.31
71976;BME280;68326;52.124;5.424;2023-05-19T01:03:05;102796.06;;;9.23;83.11
71976;BME280;68326;52.124;5.424;2023-05-19T01:05:39;102796.94;;;9.23;82.27
71976;BME280;68326;52.124;5.424;2023-05-19T01:08:07;102794.34;;;9.20;82.03
71976;BME280;68326;52.124;5.424;2023-05-19T01:10:34;102802.16;;;9.20;83.64
71976;BME280;68326;52.124;5.424;2023-05-19T01:13:02;102809.94;;;9.20;83.28
71976;BME280;68326;52.124;5.424;2023-05-19T01:16:06;102800.44;;;9.21;83.84
71976;BME280;68326;52.124;5.424;2023-05-19T01:18:53;102797.78;;;9.24;82.69
71976;BME280;68326;52.124;5.424;2023-05-19T01:29:53;102798.00;;;9.05;84.56
71976;BME280;68326;52.124;5.424;2023-05-19T01:32:24;102794.59;;;9.02;84.54
71976;BME280;68326;52.124;5.424;2023-05-19T01:34:52;102789.41;;;9.02;85.11
71976;BME280;68326;52.124;5.424;2023-05-19T01:37:20;102787.75;;;8.96;84.71
71976;BME280;68326;52.124;5.424;2023-05-19T01:39:49;102779.97;;;8.94;84.35
71976;BME280;68326;52.124;5.424;2023-05-19T01:42:16;102777.34;;;8.96;84.82
71976;BME280;68326;52.124;5.424;2023-05-19T01:44:43;102780.94;;;8.87;84.12
71976;BME280;68326;52.124;5.424;2023-05-19T01:47:09;102777.50;;;8.85;85.29
71976;BME280;68326;52.124;5.424;2023-05-19T01:49:36;102780.13;;;8.82;84.96
71976;BME280;68326;52.124;5.424;2023-05-19T01:52:03;102781.00;;;8.81;85.44
71976;BME280;68326;52.124;5.424;2023-05-19T01:54:29;102781.00;;;8.81;86.13
71976;BME280;68326;52.124;5.424;2023-05-19T01:56:59;102778.41;;;8.83;86.26
71976;BME280;68326;52.124;5.424;2023-05-19T02:02:07;102763.66;;;8.83;85.65
71976;BME280;68326;52.124;5.424;2023-05-19T02:04:43;102762.88;;;8.78;86.79
71976;BME280;68326;52.124;5.424;2023-05-19T02:07:15;102768.94;;;8.77;86.46
71976;BME280;68326;52.124;5.424;2023-05-19T02:09:53;102777.56;;;8.77;86.32
71976;BME280;68326;52.124;5.424;2023-05-19T02:12:25;102775.91;;;8.72;86.63
71976;BME280;68326;52.124;5.424;2023-05-19T02:15:01;102775.13;;;8.65;86.34
71976;BME280;68326;52.124;5.424;2023-05-19T02:17:31;102768.25;;;8.61;86.13
71976;BME280;68326;52.124;5.424;2023-05-19T02:19:58;102772.56;;;8.61;86.65
71976;BME280;68326;52.124;5.424;2023-05-19T02:22:25;102768.25;;;8.60;87.88
71976;BME280;68326;52.124;5.424;2023-05-19T02:24:51;102764.84;;;8.56;86.58
71976;BME280;68326;52.124;5.424;2023-05-19T02:27:18;102759.69;;;8.51;87.13
71976;BME280;68326;52.124;5.424;2023-05-19T02:29:44;102759.69;;;8.54;87.23
71976;BME280;68326;52.124;5.424;2023-05-19T02:32:11;102757.09;;;8.54;88.13
71976;BME280;68326;52.124;5.424;2023-05-19T02:34:37;102757.94;;;8.53;87.39
71976;BME280;68326;52.124;5.424;2023-05-19T02:37:04;102757.09;;;8.54;87.41
71976;BME280;68326;52.124;5.424;2023-05-19T02:39:32;102757.09;;;8.53;88.52
71976;BME280;68326;52.124;5.424;2023-05-19T02:42:00;102751.06;;;8.51;88.04
71976;BME280;68326;52.124;5.424;2023-05-19T02:44:27;102756.25;;;8.52;88.00
71976;BME280;68326;52.124;5.424;2023-05-19T02:46:53;102749.31;;;8.51;88.51
71976;BME280;68326;52.124;5.424;2023-05-19T02:49:20;102745.06;;;8.46;88.30
71976;BME280;68326;52.124;5.424;2023-05-19T02:51:46;102746.84;;;8.44;88.52
71976;BME280;68326;52.124;5.424;2023-05-19T02:54:13;102751.13;;;8.43;88.74
71976;BME280;68326;52.124;5.424;2023-05-19T02:56:39;102744.25;;;8.44;88.44
71976;BME280;68326;52.124;5.424;2023-05-19T02:59:06;102745.94;;;8.43;88.49
71976;BME280;68326;52.124;5.424;2023-05-19T03:01:32;102744.28;;;8.37;88.54
71976;BME280;68326;52.124;5.424;2023-05-19T03:03:59;102742.56;;;8.33;88.42
71976;BME280;68326;52.124;5.424;2023-05-19T03:06:26;102739.09;;;8.33;88.83
71976;BME280;68326;52.124;5.424;2023-05-19T03:08:52;102733.03;;;8.35;89.62
71976;BME280;68326;52.124;5.424;2023-05-19T03:11:19;102728.75;;;8.31;89.41
71976;BME280;68326;52.124;5.424;2023-05-19T03:13:45;102733.13;;;8.28;88.54
71976;BME280;68326;52.124;5.424;2023-05-19T03:16:12;102733.16;;;8.23;88.24
71976;BME280;68326;52.124;5.424;2023-05-19T03:18:40;102728.84;;;8.22;88.89
71976;BME280;68326;52.124;5.424;2023-05-19T03:21:07;102731.47;;;8.19;88.51
71976;BME280;68326;52.124;5.424;2023-05-19T03:23:33;102730.63;;;8.15;89.26
71976;BME280;68326;52.124;5.424;2023-05-19T03:26:00;102734.97;;;8.16;89.90
71976;BME280;68326;52.124;5.424;2023-05-19T03:28:26;102732.38;;;8.16;89.56
71976;BME280;68326;52.124;5.424;2023-05-19T03:30:53;102732.44;;;8.12;89.61
71976;BME280;68326;52.124;5.424;2023-05-19T03:33:19;102733.28;;;8.11;89.65
71976;BME280;68326;52.124;5.424;2023-05-19T03:35:46;102732.44;;;8.10;89.62
71976;BME280;68326;52.124;5.424;2023-05-19T03:38:12;102722.91;;;8.11;89.88
71976;BME280;68326;52.124;5.424;2023-05-19T03:40:39;102728.09;;;8.11;89.33
71976;BME280;68326;52.124;5.424;2023-05-19T03:43:06;102726.34;;;8.11;89.41
71976;BME280;68326;52.124;5.424;2023-05-19T03:45:33;102728.09;;;8.11;90.00
71976;BME280;68326;52.124;5.424;2023-05-19T03:47:59;102728.09;;;8.11;90.46
71976;BME280;68326;52.124;5.424;2023-05-19T03:50:26;102728.16;;;8.05;89.60
71976;BME280;68326;52.124;5.424;2023-05-19T03:52:54;102729.00;;;8.05;89.91
71976;BME280;68326;52.124;5.424;2023-05-19T03:55:20;102733.34;;;8.06;89.68
71976;BME280;68326;52.124;5.424;2023-05-19T03:57:47;102728.19;;;8.00;90.26
71976;BME280;68326;52.124;5.424;2023-05-19T04:00:14;102731.69;;;7.96;89.80
71976;BME280;68326;52.124;5.424;2023-05-19T04:02:41;102727.41;;;7.95;90.13
71976;BME280;68326;52.124;5.424;2023-05-19T04:05:09;102731.69;;;7.94;90.43
71976;BME280;68326;52.124;5.424;2023-05-19T04:07:35;102733.44;;;7.94;91.22
71976;BME280;68326;52.124;5.424;2023-05-19T04:10:03;102736.03;;;7.97;91.00
71976;BME280;68326;52.124;5.424;2023-05-19T04:12:30;102734.28;;;7.94;90.20
71976;BME280;68326;52.124;5.424;2023-05-19T04:14:57;102729.09;;;7.94;90.97
71976;BME280;68326;52.124;5.424;2023-05-19T04:17:24;102729.09;;;7.97;90.83
71976;BME280;68326;52.124;5.424;2023-05-19T04:19:52;102735.97;;;8.00;91.12
71976;BME280;68326;52.124;5.424;2023-05-19T04:22:19;102735.94;;;8.03;91.02
71976;BME280;68326;52.124;5.424;2023-05-19T04:24:46;102735.03;;;8.09;91.04
71976;BME280;68326;52.124;5.424;2023-05-19T04:27:13;102739.38;;;8.07;91.45
71976;BME280;68326;52.124;5.424;2023-05-19T04:29:41;102739.31;;;8.11;91.74
71976;BME280;68326;52.124;5.424;2023-05-19T04:32:07;102742.75;;;8.16;91.33
71976;BME280;68326;52.124;5.424;2023-05-19T04:34:34;102746.13;;;8.23;91.86
71976;BME280;68326;52.124;5.424;2023-05-19T04:37:01;102737.47;;;8.24;90.61
71976;BME280;68326;52.124;5.424;2023-05-19T04:39:28;102740.91;;;8.26;91.44
71976;BME280;68326;52.124;5.424;2023-05-19T04:41:54;102736.59;;;8.27;91.34
71976;BME280;68326;52.124;5.424;2023-05-19T04:44:21;102740.94;;;8.25;91.06
71976;BME280;68326;52.124;5.424;2023-05-19T04:46:48;102744.38;;;8.27;91.54
71976;BME280;68326;52.124;5.424;2023-05-19T04:49:15;102744.31;;;8.31;92.48
71976;BME280;68326;52.124;5.424;2023-05-19T04:51:44;102745.13;;;8.40;92.25
71976;BME280;68326;52.124;5.424;2023-05-19T04:54:11;102739.88;;;8.46;91.84
71976;BME280;68326;52.124;5.424;2023-05-19T04:56:37;102748.44;;;8.54;91.40
71976;BME280;68326;52.124;5.424;2023-05-19T04:59:04;102755.28;;;8.61;91.25
71976;BME280;68326;52.124;5.424;2023-05-19T05:01:30;102753.47;;;8.68;91.73
71976;BME280;68326;52.124;5.424;2023-05-19T05:03:58;102747.31;;;8.75;91.00
71976;BME280;68326;52.124;5.424;2023-05-19T05:06:27;102742.06;;;8.81;90.86
71976;BME280;68326;52.124;5.424;2023-05-19T05:08:54;102745.44;;;8.88;90.54
71976;BME280;68326;52.124;5.424;2023-05-19T05:11:22;102752.31;;;8.92;91.68
71976;BME280;68326;52.124;5.424;2023-05-19T05:13:48;102750.47;;;9.02;90.88
71976;BME280;68326;52.124;5.424;2023-05-19T05:16:15;102752.06;;;9.12;90.77
71976;BME280;68326;52.124;5.424;2023-05-19T05:18:42;102745.88;;;9.21;90.92
71976;BME280;68326;52.124;5.424;2023-05-19T05:21:10;102756.13;;;9.30;90.89
71976;BME280;68326;52.124;5.424;2023-05-19T05:23:37;102749.09;;;9.36;89.78
71976;BME280;68326;52.124;5.424;2023-05-19T05:26:08;102756.78;;;9.46;89.31
71976;BME280;68326;52.124;5.424;2023-05-19T05:28:36;102756.63;;;9.55;89.57
71976;BME280;68326;52.124;5.424;2023-05-19T05:31:02;102747.84;;;9.64;89.77
71976;BME280;68326;52.124;5.424;2023-05-19T05:33:29;102747.75;;;9.68;89.14
71976;BME280;68326;52.124;5.424;2023-05-19T05:35:56;102750.34;;;9.70;89.36
71976;BME280;68326;52.124;5.424;2023-05-19T05:38:22;102742.56;;;9.67;88.13
71976;BME280;68326;52.124;5.424;2023-05-19T05:40:49;102747.75;;;9.68;87.84
71976;BME280;68326;52.124;5.424;2023-05-19T05:43:15;102743.28;;;9.78;88.52
71976;BME280;68326;52.124;5.424;2023-05-19T05:45:42;102755.13;;;9.94;88.06
71976;BME280;68326;52.124;5.424;2023-05-19T05:48:09;102749.72;;;10.07;87.66
71976;BME280;68326;52.124;5.424;2023-05-19T05:50:36;102753.03;;;10.15;88.08
71976;BME280;68326;52.124;5.424;2023-05-19T05:53:04;102754.63;;;10.24;86.02
71976;BME280;68326;52.124;5.424;2023-05-19T05:55:32;102758.00;;;10.29;86.93
71976;BME280;68326;52.124;5.424;2023-05-19T05:57:59;102761.19;;;10.45;86.15
71976;BME280;68326;52.124;5.424;2023-05-19T06:00:27;102752.34;;;10.55;85.95
71976;BME280;68326;52.124;5.424;2023-05-19T06:02:55;102753.97;;;10.60;85.10
71976;BME280;68326;52.124;5.424;2023-05-19T06:05:22;102754.00;;;10.59;85.00
71976;BME280;68326;52.124;5.424;2023-05-19T06:07:50;102753.78;;;10.70;85.35
71976;BME280;68326;52.124;5.424;2023-05-19T06:10:16;102750.81;;;10.88;85.01
71976;BME280;68326;52.124;5.424;2023-05-19T06:12:43;102751.28;;;11.07;83.98
71976;BME280;68326;52.124;5.424;2023-05-19T06:15:09;102751.75;;;11.25;83.50
71976;BME280;68326;52.124;5.424;2023-05-19T06:17:36;102756.59;;;11.40;83.38
71976;BME280;68326;52.124;5.424;2023-05-19T06:20:03;102753.84;;;11.48;81.87
71976;BME280;68326;52.124;5.424;2023-05-19T06:22:31;102749.28;;;11.56;81.42
71976;BME280;68326;52.124;5.424;2023-05-19T06:24:58;102756.19;;;11.58;80.75
71976;BME280;68326;52.124;5.424;2023-05-19T06:27:24;102754.22;;;11.67;80.83
71976;BME280;68326;52.124;5.424;2023-05-19T06:29:51;102747.00;;;11.79;79.74
71976;BME280;68326;52.124;5.424;2023-05-19T06:32:18;102749.91;;;12.03;79.97
71976;BME280;68326;52.124;5.424;2023-05-19T06:34:44;102748.59;;;12.19;80.50
71976;BME280;68326;52.124;5.424;2023-05-19T06:37:11;102743.03;;;12.32;78.21
71976;BME280;68326;52.124;5.424;2023-05-19T06:39:40;102743.66;;;12.41;77.53
71976;BME280;68326;52.124;5.424;2023-05-19T06:42:06;102747.72;;;12.52;75.46
71976;BME280;68326;52.124;5.424;2023-05-19T06:44:32;102743.88;;;12.65;76.70
71976;BME280;68326;52.124;5.424;2023-05-19T06:46:59;102747.06;;;12.75;75.56
71976;BME280;68326;52.124;5.424;2023-05-19T06:49:25;102744.94;;;12.88;75.11
71976;BME280;68326;52.124;5.424;2023-05-19T06:51:54;102744.72;;;12.95;74.90
71976;BME280;68326;52.124;5.424;2023-05-19T06:54:21;102746.88;;;13.11;76.34
71976;BME280;68326;52.124;5.424;2023-05-19T06:56:47;102749.09;;;13.23;75.48
71976;BME280;68326;52.124;5.424;2023-05-19T06:59:14;102744.69;;;13.25;74.32
71976;BME280;68326;52.124;5.424;2023-05-19T07:01:41;102749.03;;;13.26;72.86
71976;BME280;68326;52.124;5.424;2023-05-19T07:04:07;102756.75;;;13.31;73.50
71976;BME280;68326;52.124;5.424;2023-05-19T07:06:34;102756.63;;;13.35;72.74
71976;BME280;68326;52.124;5.424;2023-05-19T07:09:00;102751.75;;;13.51;72.16
71976;BME280;68326;52.124;5.424;2023-05-19T07:11:29;102744.66;;;13.55;70.68
71976;BME280;68326;52.124;5.424;2023-05-19T07:13:56;102746.97;;;13.64;69.23
71976;BME280;68326;52.124;5.424;2023-05-19T07:16:22;102746.84;;;13.69;69.67
71976;BME280;68326;52.124;5.424;2023-05-19T07:18:49;102746.75;;;13.70;69.78
71976;BME280;68326;52.124;5.424;2023-05-19T07:21:16;102742.66;;;13.63;68.50
71976;BME280;68326;52.124;5.424;2023-05-19T07:23:42;102735.50;;;13.68;70.75
71976;BME280;68326;52.124;5.424;2023-05-19T07:26:09;102742.84;;;13.83;70.38
71976;BME280;68326;52.124;5.424;2023-05-19T07:28:35;102742.31;;;13.99;69.73
71976;BME280;68326;52.124;5.424;2023-05-19T07:31:06;102739.34;;;14.10;68.16
71976;BME280;68326;52.124;5.424;2023-05-19T07:33:33;102747.03;;;14.14;66.82
71976;BME280;68326;52.124;5.424;2023-05-19T07:35:59;102735.41;;;14.21;67.86
71976;BME280;68326;52.124;5.424;2023-05-19T07:38:26;102747.31;;;14.30;66.19
71976;BME280;68326;52.124;5.424;2023-05-19T07:40:54;102744.28;;;14.42;66.07
71976;BME280;68326;52.124;5.424;2023-05-19T07:43:20;102744.09;;;14.47;66.24
71976;BME280;68326;52.124;5.424;2023-05-19T07:45:47;102751.41;;;14.39;65.50
71976;BME280;68326;52.124;5.424;2023-05-19T07:48:13;102740.28;;;14.32;63.84
71976;BME280;68326;52.124;5.424;2023-05-19T07:50:40;102737.44;;;14.38;66.63
71976;BME280;68326;52.124;5.424;2023-05-19T07:53:06;102742.81;;;14.60;66.44
71976;BME280;68326;52.124;5.424;2023-05-19T07:55:33;102733.13;;;14.62;61.12
71976;BME280;68326;52.124;5.424;2023-05-19T07:58:00;102734.72;;;14.66;62.67
71976;BME280;68326;52.124;5.424;2023-05-19T08:00:26;102729.50;;;14.88;63.23
71976;BME280;68326;52.124;5.424;2023-05-19T08:02:53;102732.78;;;14.94;61.61
71976;BME280;68326;52.124;5.424;2023-05-19T08:05:22;102729.16;;;14.98;62.66
71976;BME280;68326;52.124;5.424;2023-05-19T08:07:50;102715.56;;;15.10;61.32
71976;BME280;68326;52.124;5.424;2023-05-19T08:10:17;102720.09;;;15.28;63.41
71976;BME280;68326;52.124;5.424;2023-05-19T08:12:44;102714.09;;;15.67;63.34
71976;BME280;68326;52.124;5.424;2023-05-19T08:15:10;102716.91;;;15.85;58.94
71976;BME280;68326;52.124;5.424;2023-05-19T08:17:37;102715.78;;;15.90;58.50
71976;BME280;68326;52.124;5.424;2023-05-19T08:20:04;102716.97;;;16.04;58.98
71976;BME280;68326;52.124;5.424;2023-05-19T08:22:33;102709.91;;;16.25;56.97
71976;BME280;68326;52.124;5.424;2023-05-19T08:25:00;102712.22;;;16.33;55.94
71976;BME280;68326;52.124;5.424;2023-05-19T08:27:26;102711.00;;;16.40;55.68
71976;BME280;68326;52.124;5.424;2023-05-19T08:29:53;102708.41;;;16.59;57.48
71976;BME280;68326;52.124;5.424;2023-05-19T08:32:20;102710.91;;;16.62;53.90
71976;BME280;68326;52.124;5.424;2023-05-19T08:34:47;102701.22;;;16.62;56.23
71976;BME280;68326;52.124;5.424;2023-05-19T08:37:13;102694.13;;;16.64;54.68
71976;BME280;68326;52.124;5.424;2023-05-19T08:39:40;102697.75;;;16.62;51.59
71976;BME280;68326;52.124;5.424;2023-05-19T08:42:07;102696.59;;;16.67;52.40
71976;BME280;68326;52.124;5.424;2023-05-19T08:44:38;102691.78;;;16.77;51.86
71976;BME280;68326;52.124;5.424;2023-05-19T08:47:06;102691.38;;;16.86;53.65
71976;BME280;68326;52.124;5.424;2023-05-19T08:49:46;102681.53;;;17.09;49.53
71976;BME280;68326;52.124;5.424;2023-05-19T08:55:06;102687.19;;;17.19;51.94
71976;BME280;68326;52.124;5.424;2023-05-19T08:57:35;102669.47;;;17.22;51.13
71976;BME280;68326;52.124;5.424;2023-05-19T09:00:03;102666.47;;;17.47;50.94
71976;BME280;68326;52.124;5.424;2023-05-19T09:02:36;102678.16;;;17.59;47.56
71976;BME280;68326;52.124;5.424;2023-05-19T09:05:21;102675.28;;;17.46;48.22
71976;BME280;68326;52.124;5.424;2023-05-19T09:07:48;102672.53;;;17.32;46.62
71976;BME280;68326;52.124;5.424;2023-05-19T09:10:14;102668.28;;;17.10;47.05
71976;BME280;68326;52.124;5.424;2023-05-19T09:12:43;102676.03;;;16.96;50.50
71976;BME280;68326;52.124;5.424;2023-05-19T09:15:17;102675.06;;;16.97;48.55
71976;BME280;68326;52.124;5.424;2023-05-19T09:17:47;102669.97;;;16.94;48.51
71976;BME280;68326;52.124;5.424;2023-05-19T09:20:15;102669.47;;;17.22;48.45
71976;BME280;68326;52.124;5.424;2023-05-19T09:22:43;102669.66;;;17.37;46.63
71976;BME280;68326;52.124;5.424;2023-05-19T09:25:21;102665.63;;;17.64;50.40
71976;BME280;68326;52.124;5.424;2023-05-19T09:27:48;102662.44;;;17.75;47.06
71976;BME280;68326;52.124;5.424;2023-05-19T09:30:16;102665.25;;;17.89;48.09
71976;BME280;68326;52.124;5.424;2023-05-19T09:32:44;102660.41;;;17.98;45.00
71976;BME280;68326;52.124;5.424;2023-05-19T09:35:11;102661.19;;;18.00;44.26
71976;BME280;68326;52.124;5.424;2023-05-19T09:37:39;102655.69;;;18.04;43.75
71976;BME280;68326;52.124;5.424;2023-05-19T09:40:07;102662.16;;;18.14;44.95
71976;BME280;68326;52.124;5.424;2023-05-19T09:42:38;102664.78;;;18.14;44.51
71976;BME280;68326;52.124;5.424;2023-05-19T09:45:06;102656.88;;;18.14;47.25
71976;BME280;68326;52.124;5.424;2023-05-19T09:47:34;102653.44;;;18.30;49.13
71976;BME280;68326;52.124;5.424;2023-05-19T09:50:07;102658.88;;;18.27;45.06
71976;BME280;68326;52.124;5.424;2023-05-19T09:52:35;102655.00;;;18.01;45.83
71976;BME280;68326;52.124;5.424;2023-05-19T09:55:03;102652.28;;;17.85;44.37
71976;BME280;68326;52.124;5.424;2023-05-19T09:57:35;102649.75;;;17.83;47.08
71976;BME280;68326;52.124;5.424;2023-05-19T10:00:07;102650.88;;;17.78;47.35
71976;BME280;68326;52.124;5.424;2023-05-19T10:02:40;102650.28;;;17.72;46.35
71976;BME280;68326;52.124;5.424;2023-05-19T10:05:10;102650.81;;;17.79;47.91
71976;BME280;68326;52.124;5.424;2023-05-19T10:07:39;102651.66;;;17.97;47.56
71976;BME280;68326;52.124;5.424;2023-05-19T10:10:08;102651.59;;;18.14;44.91
71976;BME280;68326;52.124;5.424;2023-05-19T10:12:37;102643.63;;;18.16;45.48
71976;BME280;68326;52.124;5.424;2023-05-19T10:15:09;102650.03;;;18.28;45.77
71976;BME280;68326;52.124;5.424;2023-05-19T10:17:40;102643.31;;;18.38;46.77
71976;BME280;68326;52.124;5.424;2023-05-19T10:20:11;102638.66;;;18.43;46.71
71976;BME280;68326;52.124;5.424;2023-05-19T10:22:38;102637.88;;;18.57;46.60
71976;BME280;68326;52.124;5.424;2023-05-19T10:25:06;102638.22;;;18.67;44.54
71976;BME280;68326;52.124;5.424;2023-05-19T10:27:35;102630.31;;;18.67;44.59
71976;BME280;68326;52.124;5.424;2023-05-19T10:30:18;102629.34;;;18.68;44.78
71976;BME280;68326;52.124;5.424;2023-05-19T10:32:46;102628.84;;;18.93;47.14
71976;BME280;68326;52.124;5.424;2023-05-19T10:35:41;102622.38;;;19.29;45.64
71976;BME280;68326;52.124;5.424;2023-05-19T10:41:15;102622.22;;;19.46;47.01
71976;BME280;68326;52.124;5.424;2023-05-19T10:46:14;102610.47;;;19.52;45.95
71976;BME280;68326;52.124;5.424;2023-05-19T10:48:44;102614.25;;;19.62;44.71
71976;BME280;68326;52.124;5.424;2023-05-19T10:51:13;102613.66;;;19.43;42.83
71976;BME280;68326;52.124;5.424;2023-05-19T10:53:41;102617.78;;;19.32;42.18
71976;BME280;68326;52.124;5.424;2023-05-19T10:56:27;102610.53;;;19.50;44.41
71976;BME280;68326;52.124;5.424;2023-05-19T10:58:59;102613.84;;;19.54;43.83
71976;BME280;68326;52.124;5.424;2023-05-19T11:01:34;102612.16;;;19.53;42.94
71976;BME280;68326;52.124;5.424;2023-05-19T11:04:05;102610.53;;;19.50;43.02
71976;BME280;68326;52.124;5.424;2023-05-19T11:06:33;102605.25;;;19.36;43.23
71976;BME280;68326;52.124;5.424;2023-05-19T11:09:14;102604.16;;;19.69;43.48
71976;BME280;68326;52.124;5.424;2023-05-19T11:11:49;102604.84;;;19.87;41.74
71976;BME280;68326;52.124;5.424;2023-05-19T11:14:25;102609.94;;;19.90;39.72
71976;BME280;68326;52.124;5.424;2023-05-19T11:16:56;102596.44;;;19.94;39.94
71976;BME280;68326;52.124;5.424;2023-05-19T11:19:31;102594.19;;;20.03;38.43
71976;BME280;68326;52.124;5.424;2023-05-19T11:22:12;102603.63;;;20.07;39.21
71976;BME280;68326;52.124;5.424;2023-05-19T11:24:44;102604.28;;;20.10;39.60
71976;BME280;68326;52.124;5.424;2023-05-19T11:27:25;102599.84;;;20.11;40.06
71976;BME280;68326;52.124;5.424;2023-05-19T11:32:33;102586.88;;;20.21;38.33
71976;BME280;68326;52.124;5.424;2023-05-19T11:35:01;102583.31;;;20.22;39.56
71976;BME280;68326;52.124;5.424;2023-05-19T11:37:30;102589.69;;;20.32;38.58
71976;BME280;68326;52.124;5.424;2023-05-19T11:40:00;102584.50;;;20.30;40.50
71976;BME280;68326;52.124;5.424;2023-05-19T11:42:27;102588.94;;;20.30;37.52
71976;BME280;68326;52.124;5.424;2023-05-19T11:44:54;102587.81;;;20.34;40.24
71976;BME280;68326;52.124;5.424;2023-05-19T11:47:21;102586.09;;;20.33;39.54
71976;BME280;68326;52.124;5.424;2023-05-19T11:49:50;102574.84;;;20.29;39.62
71976;BME280;68326;52.124;5.424;2023-05-19T11:52:24;102573.19;;;20.55;41.01
71976;BME280;68326;52.124;5.424;2023-05-19T11:54:51;102566.91;;;20.71;38.46
71976;BME280;68326;52.124;5.424;2023-05-19T11:57:18;102571.47;;;20.54;38.59
71976;BME280;68326;52.124;5.424;2023-05-19T11:59:44;102562.31;;;20.33;38.29
71976;BME280;68326;52.124;5.424;2023-05-19T12:02:20;102573.72;;;20.33;37.19
71976;BME280;68326;52.124;5.424;2023-05-19T12:04:47;102573.38;;;20.25;37.02
71976;BME280;68326;52.124;5.424;2023-05-19T12:07:18;102581.03;;;20.15;36.98
71976;BME280;68326;52.124;5.424;2023-05-19T12:09:46;102579.63;;;20.10;37.34
71976;BME280;68326;52.124;5.424;2023-05-19T12:12:18;102585.50;;;20.15;38.80
71976;BME280;68326;52.124;5.424;2023-05-19T12:14:45;102576.28;;;20.21;39.87
71976;BME280;68326;52.124;5.424;2023-05-19T12:17:14;102566.28;;;20.26;37.88
71976;BME280;68326;52.124;5.424;2023-05-19T12:19:42;102571.47;;;20.27;37.44
71976;BME280;68326;52.124;5.424;2023-05-19T12:22:09;102572.00;;;20.05;38.09
71976;BME280;68326;52.124;5.424;2023-05-19T12:24:37;102572.47;;;19.98;37.32
71976;BME280;68326;52.124;5.424;2023-05-19T12:27:17;102571.75;;;19.95;40.24
71976;BME280;68326;52.124;5.424;2023-05-19T12:29:55;102570.31;;;19.75;37.84
71976;BME280;68326;52.124;5.424;2023-05-19T12:32:26;102565.56;;;19.66;40.18
71976;BME280;68326;52.124;5.424;2023-05-19T12:34:57;102567.44;;;19.50;36.54
71976;BME280;68326;52.124;5.424;2023-05-19T12:37:27;102553.38;;;19.35;36.88
71976;BME280;68326;52.124;5.424;2023-05-19T12:39:56;102556.38;;;19.29;38.06
71976;BME280;68326;52.124;5.424;2023-05-19T12:42:25;102550.25;;;19.28;37.56
71976;BME280;68326;52.124;5.424;2023-05-19T12:44:57;102548.50;;;19.43;39.53
71976;BME280;68326;52.124;5.424;2023-05-19T12:47:31;102547.38;;;19.62;42.01
71976;BME280;68326;52.124;5.424;2023-05-19T12:52:26;102547.16;;;19.65;42.24
71976;BME280;68326;52.124;5.424;2023-05-19T12:55:05;102541.47;;;19.72;40.23
71976;BME280;68326;52.124;5.424;2023-05-19T12:57:40;102534.84;;;19.80;38.07
71976;BME280;68326;52.124;5.424;2023-05-19T13:02:53;102542.38;;;20.00;40.76
71976;BME280;68326;52.124;5.424;2023-05-19T13:05:21;102534.00;;;19.93;40.60
71976;BME280;68326;52.124;5.424;2023-05-19T13:07:53;102534.06;;;19.92;40.08
71976;BME280;68326;52.124;5.424;2023-05-19T13:10:20;102533.13;;;19.93;40.32
71976;BME280;68326;52.124;5.424;2023-05-19T13:12:46;102531.91;;;19.84;40.85
71976;BME280;68326;52.124;5.424;2023-05-19T13:15:13;102528.41;;;19.84;41.13
71976;BME280;68326;52.124;5.424;2023-05-19T13:17:40;102523.34;;;19.81;40.27
71976;BME280;68326;52.124;5.424;2023-05-19T13:20:07;102529.75;;;19.77;41.54
71976;BME280;68326;52.124;5.424;2023-05-19T13:22:34;102530.41;;;19.66;40.90
71976;BME280;68326;52.124;5.424;2023-05-19T13:25:00;102523.69;;;19.60;40.23
71976;BME280;68326;52.124;5.424;2023-05-19T13:27:27;102534.63;;;19.54;41.80
71976;BME280;68326;52.124;5.424;2023-05-19T13:29:54;102531.03;;;19.55;42.10